Time;durP1;ratioP1;P1;durP2;ratioP2;P2;SDS_P1;SDS_P2;PMS_P1;PMS_P2;Temp;Humidity;BMP_temperature;BMP_pressure;BME280_temperature;BME280_humidity;BME280_pressure;Samples;Min_cycle;Max_cycle;Signal;HPM_P1;HPM_P2
2021/10/25 00:01:35;;;;;;;7.80;5.80;;;;;;;26.28;17.83;95691.66;5033653;28;20045;-45
2021/10/25 00:04:02;;;;;;;7.25;5.85;;;;;;;26.12;17.69;95691.00;5030712;28;20048;-43
2021/10/25 00:06:29;;;;;;;6.40;5.68;;;;;;;26.38;17.73;95693.81;5033835;28;20052;-45
2021/10/25 00:08:56;;;;;;;7.75;6.18;;;;;;;25.85;17.99;95687.41;5027198;28;20088;-45
2021/10/25 00:11:24;;;;;;;7.07;5.90;;;;;;;26.01;17.94;95684.63;5032518;28;20053;-45
2021/10/25 00:13:51;;;;;;;6.88;5.85;;;;;;;26.17;17.58;95685.34;5031004;28;20045;-44
2021/10/25 00:16:18;;;;;;;7.45;6.25;;;;;;;26.41;17.50;95676.25;5032534;28;20045;-45
2021/10/25 00:18:45;;;;;;;7.55;5.90;;;;;;;26.02;17.65;95680.81;5032696;28;20053;-47
2021/10/25 00:21:12;;;;;;;7.03;5.50;;;;;;;26.36;17.38;95689.94;5031380;28;20376;-45
2021/10/25 00:23:39;;;;;;;6.90;5.63;;;;;;;26.10;17.91;95687.91;5033668;28;20060;-44
2021/10/25 00:26:07;;;;;;;7.50;6.10;;;;;;;26.36;17.60;95680.00;5030046;28;20048;-44
2021/10/25 00:28:34;;;;;;;6.32;5.72;;;;;;;26.03;17.87;95693.91;5032783;28;20052;-45
2021/10/25 00:31:01;;;;;;;8.07;6.00;;;;;;;25.90;18.05;95686.34;5033500;28;20076;-44
2021/10/25 00:33:29;;;;;;;6.40;5.47;;;;;;;26.15;17.66;95692.19;5032223;28;20357;-44
2021/10/25 00:35:57;;;;;;;7.60;5.80;;;;;;;25.94;18.10;95692.53;5029494;28;20049;-45
2021/10/25 00:38:24;;;;;;;7.50;6.38;;;;;;;26.04;17.82;95694.66;5032983;28;20045;-44
2021/10/25 00:40:52;;;;;;;7.07;5.47;;;;;;;26.09;17.71;95691.69;5031896;28;20052;-44
2021/10/25 00:43:19;;;;;;;7.75;6.00;;;;;;;25.90;17.76;95683.66;5030123;28;20440;-45
2021/10/25 00:45:46;;;;;;;6.18;5.50;;;;;;;25.19;18.18;95694.34;5031877;28;20053;-44
2021/10/25 00:48:14;;;;;;;6.68;5.95;;;;;;;25.43;18.33;95692.56;5022309;28;20057;-45
2021/10/25 00:50:41;;;;;;;6.72;5.78;;;;;;;25.30;18.32;95688.47;5033390;28;20449;-44
2021/10/25 00:53:09;;;;;;;6.60;5.65;;;;;;;25.57;18.13;95686.78;5065604;28;20049;-44
2021/10/25 00:55:40;;;;;;;6.28;5.60;;;;;;;25.09;18.42;95683.41;5064793;28;20056;-44
2021/10/25 00:58:08;;;;;;;6.70;5.40;;;;;;;25.25;18.25;95681.50;5028067;28;20455;-44
2021/10/25 01:00:36;;;;;;;6.53;5.53;;;;;;;25.25;18.10;95691.44;5023040;28;20048;-44
2021/10/25 01:03:04;;;;;;;8.50;6.00;;;;;;;25.32;18.13;95687.00;5027806;28;20033;-51
2021/10/25 01:05:31;;;;;;;7.63;6.00;;;;;;;25.02;18.44;95689.38;5012078;28;20045;-45
2021/10/25 01:08:01;;;;;;;7.45;5.65;;;;;;;25.08;18.28;95685.31;5027058;28;20045;-46
2021/10/25 01:10:28;;;;;;;6.40;5.70;;;;;;;25.10;18.23;95680.38;5028428;28;20046;-46
2021/10/25 01:12:57;;;;;;;8.40;5.78;;;;;;;25.49;17.85;95685.81;5032117;28;20054;-44
2021/10/25 01:15:25;;;;;;;7.10;5.82;;;;;;;25.38;17.97;95685.59;5033343;28;20038;-46
2021/10/25 01:17:56;;;;;;;7.95;6.22;;;;;;;24.77;18.56;95698.66;5028026;28;20519;-53
2021/10/25 01:20:24;;;;;;;8.77;5.82;;;;;;;24.83;18.55;95681.22;5031649;28;20060;-46
2021/10/25 01:22:52;;;;;;;6.35;5.75;;;;;;;24.82;18.55;95696.50;5029230;28;20364;-46
2021/10/25 01:25:19;;;;;;;6.03;5.40;;;;;;;25.12;18.36;95686.16;5011735;28;20371;-45
2021/10/25 01:27:46;;;;;;;7.32;5.85;;;;;;;24.82;18.56;95685.81;5031590;28;20072;-45
2021/10/25 01:30:14;;;;;;;7.20;6.00;;;;;;;24.62;18.68;95686.03;5065273;28;20080;-48
2021/10/25 01:32:45;;;;;;;9.68;6.03;;;;;;;24.66;18.74;95684.22;5028163;28;20057;-47
2021/10/25 01:35:13;;;;;;;;;;;;;;;24.97;18.63;95678.88;5032605;28;20364;-46
2021/10/25 01:37:40;;;;;;;6.50;5.80;;;;;;;24.74;18.52;95683.31;5033677;28;19920;-47
2021/10/25 01:40:09;;;;;;;6.70;5.78;;;;;;;24.67;18.76;95683.09;5027838;28;20057;-46
2021/10/25 01:42:37;;;;;;;6.30;5.40;;;;;;;24.69;18.66;95686.22;5035262;28;20080;-45
2021/10/25 01:45:07;;;;;;;6.90;5.45;;;;;;;24.73;18.61;95693.22;5035642;28;20045;-44
2021/10/25 01:47:36;;;;;;;6.97;5.80;;;;;;;24.82;18.70;95687.69;5032075;28;20629;-44
2021/10/25 01:50:04;;;;;;;7.82;5.72;;;;;;;24.86;18.69;95675.19;5035421;28;20056;-46
2021/10/25 01:52:32;;;;;;;5.78;4.93;;;;;;;24.66;18.91;95685.00;5032753;28;20042;-45
2021/10/25 01:54:59;;;;;;;6.53;5.07;;;;;;;24.79;18.84;95680.38;5035744;28;20056;-48
2021/10/25 01:57:26;;;;;;;7.07;5.90;;;;;;;24.66;19.02;95682.34;5035207;28;20057;-48
2021/10/25 01:59:57;;;;;;;6.72;5.63;;;;;;;24.87;18.63;95677.50;5035033;28;20045;-46
2021/10/25 02:02:41;;;;;;;10.10;6.15;;;;;;;24.63;19.02;95682.25;5032402;28;20387;-45
2021/10/25 02:05:21;;;;;;;6.75;5.28;;;;;;;24.66;19.13;95681.56;5035367;28;20475;-44
2021/10/25 02:07:48;;;;;;;7.82;5.90;;;;;;;24.55;19.15;95681.31;5036146;28;20418;-48
2021/10/25 02:10:15;;;;;;;7.13;5.80;;;;;;;24.76;19.02;95686.41;5030759;28;20045;-44
2021/10/25 02:12:42;;;;;;;6.00;5.28;;;;;;;24.60;19.24;95676.47;5035613;28;20061;-44
2021/10/25 02:15:09;;;;;;;7.85;5.70;;;;;;;24.63;19.10;95677.69;5032472;28;20045;-44
2021/10/25 02:17:37;;;;;;;7.03;5.93;;;;;;;24.73;19.00;95671.06;5034204;28;20053;-59
2021/10/25 02:20:05;;;;;;;8.40;6.55;;;;;;;24.83;19.14;95675.88;5034943;28;20046;-44
2021/10/25 02:22:32;;;;;;;9.68;5.80;;;;;;;24.99;18.77;95674.00;5034647;28;20048;-44
2021/10/25 02:24:59;;;;;;;6.63;5.78;;;;;;;24.64;19.14;95678.44;5031430;28;20052;-45
2021/10/25 02:27:26;;;;;;;8.13;5.35;;;;;;;24.71;19.14;95673.28;5034887;28;20041;-44
2021/10/25 02:29:54;;;;;;;5.90;5.25;;;;;;;24.87;18.76;95674.06;5034540;28;20479;-44
2021/10/25 02:32:24;;;;;;;6.72;5.35;;;;;;;24.97;19.09;95670.84;5031042;28;20045;-44
2021/10/25 02:34:52;;;;;;;7.65;5.57;;;;;;;24.76;19.23;95671.13;5034598;28;20040;-68
2021/10/25 02:37:20;;;;;;;7.85;5.38;;;;;;;24.85;19.14;95678.97;5031341;28;20057;-52
2021/10/25 02:39:49;;;;;;;7.82;5.35;;;;;;;24.98;19.01;95671.63;5033758;28;20056;-44
2021/10/25 02:42:16;;;;;;;5.90;5.05;;;;;;;24.63;19.06;95679.56;5034307;28;20049;-44
2021/10/25 02:44:44;;;;;;;6.97;4.95;;;;;;;24.88;18.88;95683.63;5031991;28;20049;-44
2021/10/25 02:47:15;;;;;;;5.97;5.30;;;;;;;24.85;18.80;95674.41;5032996;28;20052;-45
2021/10/25 02:49:43;;;;;;;8.10;5.40;;;;;;;24.52;19.15;95680.09;5024625;28;20472;-44
2021/10/25 02:52:11;;;;;;;8.88;5.78;;;;;;;24.69;19.15;95675.50;5014742;28;20053;-45
2021/10/25 02:54:39;;;;;;;7.75;5.57;;;;;;;24.60;19.25;95671.13;5015917;28;20057;-44
2021/10/25 02:57:07;;;;;;;6.20;5.60;;;;;;;24.73;19.28;95665.72;5050407;28;20045;-46
2021/10/25 02:59:37;;;;;;;6.32;5.68;;;;;;;24.40;19.51;95669.47;5013292;28;20479;-46
2021/10/25 03:02:06;;;;;;;7.60;5.28;;;;;;;24.60;19.25;95668.44;5015915;28;20056;-45
2021/10/25 03:04:34;;;;;;;7.63;5.90;;;;;;;24.68;19.38;95663.28;5017056;28;20472;-49
2021/10/25 03:07:01;;;;;;;7.75;5.63;;;;;;;25.07;18.83;95659.69;5017040;28;20052;-44
2021/10/25 03:09:29;;;;;;;9.38;5.53;;;;;;;24.73;19.22;95679.09;5012466;28;20041;-47
2021/10/25 03:11:56;;;;;;;8.15;5.65;;;;;;;24.61;19.03;95653.19;5034662;28;20060;-50
2021/10/25 03:14:23;;;;;;;7.40;5.72;;;;;;;24.51;19.01;95675.88;5032306;28;20468;-45
2021/10/25 03:16:55;;;;;;;6.63;5.78;;;;;;;24.60;19.31;95651.63;5031611;28;20061;-52
2021/10/25 03:19:23;;;;;;;7.35;5.57;;;;;;;24.92;18.95;95660.44;5034475;28;20041;-44
2021/10/25 03:21:51;;;;;;;6.82;5.60;;;;;;;24.71;19.31;95657.22;5032098;28;20053;-45
2021/10/25 03:24:18;;;;;;;5.82;5.13;;;;;;;24.88;19.10;95659.56;5031220;28;20048;-62
2021/10/25 03:26:46;;;;;;;6.50;5.72;;;;;;;24.86;19.04;95664.50;5033925;28;20049;-45
2021/10/25 03:29:13;;;;;;;7.32;5.45;;;;;;;25.04;18.96;95664.94;5034418;28;20045;-46
2021/10/25 03:31:41;;;;;;;12.60;9.07;;;;;;;24.57;19.40;95674.50;5030310;28;20056;-50
2021/10/25 03:34:09;;;;;;;11.57;8.73;;;;;;;24.85;19.06;95669.06;5033579;28;20041;-44
2021/10/25 03:36:39;;;;;;;8.15;6.80;;;;;;;24.63;19.39;95668.88;5032754;28;20049;-52
2021/10/25 03:39:07;;;;;;;7.80;5.85;;;;;;;24.83;19.28;95659.84;5032301;28;20049;-45
2021/10/25 03:41:45;;;;;;;7.43;6.30;;;;;;;24.80;19.02;95660.53;5032263;28;20057;-48
2021/10/25 03:44:17;;;;;;;;;;;;;;;24.92;18.95;95663.09;5029879;28;20107;-45
2021/10/25 03:52:36;;;;;;;12.43;8.30;;;;;;;24.87;19.07;95666.03;5028746;28;20132;-45
2021/10/25 03:55:21;;;;;;;9.95;6.97;;;;;;;24.64;19.50;95663.19;5032976;28;20049;-44
2021/10/25 04:27:59;;;;;;;11.10;8.30;;;;;;;24.33;19.04;95666.59;5011801;28;20060;-44
2021/10/25 04:30:30;;;;;;;12.15;8.57;;;;;;;24.27;19.33;95665.28;5014664;28;20061;-49
2021/10/25 04:33:01;;;;;;;8.88;7.90;;;;;;;24.47;18.99;95656.28;5016580;28;20479;-58
2021/10/25 04:35:43;;;;;;;11.75;8.10;;;;;;;26.24;19.24;95650.63;5040293;28;20045;-51
2021/10/25 04:38:30;;;;;;;11.50;8.65;;;;;;;27.70;17.89;95652.22;5001753;28;20070;-46
2021/10/25 04:40:58;;;;;;;10.38;8.65;;;;;;;28.51;16.49;95655.81;5023358;28;20045;-48
2021/10/25 04:43:25;;;;;;;12.25;8.50;;;;;;;29.32;15.89;95657.63;5043681;28;20464;-53
2021/10/25 04:45:52;;;;;;;14.73;8.80;;;;;;;29.98;15.08;95655.69;5024668;28;20054;-54
2021/10/25 04:48:19;;;;;;;13.40;8.25;;;;;;;30.35;14.95;95657.34;5013498;28;20048;-51
2021/10/25 04:51:04;;;;;;;12.95;8.55;;;;;;;30.94;14.67;95649.72;5032938;28;20053;-50
2021/10/25 04:53:40;;;;;;;10.90;7.82;;;;;;;30.82;14.50;95652.81;5027113;28;20057;-49
2021/10/25 04:56:08;;;;;;;12.60;7.95;;;;;;;31.46;14.39;95663.56;5014324;28;20050;-49
2021/10/25 04:58:35;;;;;;;9.25;8.02;;;;;;;29.70;15.10;95666.34;5028614;28;20061;-45
2021/10/25 05:01:02;;;;;;;10.27;8.10;;;;;;;28.46;15.97;95671.53;5031952;28;20056;-45
2021/10/25 05:03:33;;;;;;;10.65;9.30;;;;;;;27.35;16.85;95664.00;5031614;28;20049;-59
2021/10/25 05:06:00;;;;;;;11.35;9.15;;;;;;;26.70;17.59;95666.78;4995676;28;20054;-45
2021/10/25 05:08:28;;;;;;;11.80;9.57;;;;;;;26.22;17.90;95668.97;5028569;28;20046;-44
2021/10/25 05:10:56;;;;;;;14.50;10.75;;;;;;;26.52;17.75;95668.38;5055568;28;20060;-45
2021/10/25 05:13:23;;;;;;;14.00;9.00;;;;;;;26.74;17.50;95678.34;5028070;28;20420;-49
2021/10/25 05:15:50;;;;;;;13.93;8.90;;;;;;;27.57;17.84;95687.31;5035254;28;20052;-48
2021/10/25 05:18:18;;;;;;;18.75;7.95;;;;;;;28.56;17.49;95698.50;5036105;28;20066;-44
2021/10/25 05:20:46;;;;;;;11.27;8.02;;;;;;;28.59;16.89;95691.63;5015175;28;20049;-50
2021/10/25 05:23:13;;;;;;;14.18;8.75;;;;;;;28.79;16.65;95695.66;5037562;28;20049;-54
2021/10/25 05:25:42;;;;;;;13.40;8.38;;;;;;;28.68;17.34;95704.78;5036326;28;20372;-49
2021/10/25 05:28:09;;;;;;;13.88;7.55;;;;;;;28.40;16.86;95699.91;5015201;28;20053;-49
2021/10/25 05:30:36;;;;;;;9.35;8.15;;;;;;;28.77;16.71;95691.78;5018756;28;20049;-60
2021/10/25 05:33:04;;;;;;;10.85;8.52;;;;;;;28.84;16.88;95692.63;5018684;28;20053;-50
2021/10/25 05:35:31;;;;;;;11.18;8.20;;;;;;;28.95;17.17;95697.38;5015689;28;20056;-43
2021/10/25 05:37:58;;;;;;;12.43;7.72;;;;;;;29.11;16.90;95701.34;5018264;28;20049;-51
2021/10/25 05:40:25;;;;;;;8.93;7.97;;;;;;;29.30;16.66;95707.63;5034402;28;20071;-45
2021/10/25 05:42:57;;;;;;;;;;;;;;;29.09;16.37;95714.38;5026134;28;21534;-45
2021/10/25 05:45:24;;;;;;;11.45;8.15;;;;;;;29.19;16.11;95718.34;5036185;28;19924;-45
2021/10/25 05:47:51;;;;;;;9.70;7.18;;;;;;;29.30;16.24;95719.16;5036389;28;20045;-46
2021/10/25 05:50:18;;;;;;;9.73;7.68;;;;;;;29.35;16.03;95723.44;5035340;28;20387;-48
2021/10/25 05:52:49;;;;;;;12.70;7.63;;;;;;;29.39;15.83;95725.00;5035975;28;20053;-53
2021/10/25 05:55:23;;;;;;;11.82;7.63;;;;;;;29.60;15.48;95723.63;5018377;28;20071;-55
2021/10/25 05:57:52;;;;;;;8.65;7.00;;;;;;;29.64;15.63;95722.50;5018605;28;20052;-59
2021/10/25 06:00:24;;;;;;;10.68;7.07;;;;;;;29.82;15.21;95732.63;5002284;28;20502;-51
2021/10/25 06:02:53;;;;;;;9.55;6.97;;;;;;;30.02;15.03;95731.97;4999767;28;20041;-60
2021/10/25 06:05:24;;;;;;;8.07;6.80;;;;;;;30.03;15.77;95738.91;5032215;28;20482;-47
2021/10/25 06:07:52;;;;;;;9.27;7.10;;;;;;;30.09;15.81;95736.63;5035136;28;20061;-53
2021/10/25 06:10:31;;;;;;;7.65;6.85;;;;;;;30.00;16.06;95739.66;5034619;28;20510;-56
2021/10/25 06:13:04;;;;;;;8.82;7.25;;;;;;;31.86;14.65;95741.50;5026265;28;20057;-45
2021/10/25 06:15:40;;;;;;;21.33;7.32;;;;;;;31.27;14.60;95741.19;5023737;28;20045;-56
2021/10/25 06:18:09;;;;;;;9.30;7.22;;;;;;;30.83;15.15;95740.75;5027485;28;20049;-45
2021/10/25 06:20:39;;;;;;;9.70;7.30;;;;;;;30.96;14.89;95750.00;4998261;28;20477;-46
2021/10/25 06:23:13;;;;;;;9.60;7.15;;;;;;;30.74;15.08;95751.13;5033418;28;20049;-50
2021/10/25 06:25:46;;;;;;;11.07;8.10;;;;;;;30.83;14.88;95755.00;5034721;28;20045;-64
2021/10/25 06:28:19;;;;;;;9.82;7.10;;;;;;;32.70;13.31;95757.81;5030730;28;20053;-50
2021/10/25 06:30:58;;;;;;;7.18;6.28;;;;;;;31.50;14.32;95751.59;5017541;28;20053;-57
2021/10/25 06:33:42;;;;;;;6.88;5.57;;;;;;;31.60;14.18;95758.13;5066734;28;20523;-55
2021/10/25 06:36:37;;;;;;;7.85;4.80;;;;;;;31.88;13.46;95758.13;5031610;28;20045;-59
2021/10/25 06:39:22;;;;;;;6.60;4.85;;;;;;;30.91;14.23;95764.66;5023457;28;20045;-54
2021/10/25 06:41:53;;;;;;;6.68;4.40;;;;;;;31.28;13.72;95756.25;5025236;28;20057;-44
2021/10/25 06:44:26;;;;;;;8.20;4.55;;;;;;;30.83;14.11;95752.31;5014387;28;20052;-55
2021/10/25 06:47:13;;;;;;;8.68;5.40;;;;;;;30.38;14.32;95759.09;5056943;28;20041;-51
2021/10/25 06:49:41;;;;;;;5.80;4.70;;;;;;;29.80;14.63;95768.03;5033880;28;20092;-52
2021/10/25 06:52:08;;;;;;;6.65;4.60;;;;;;;30.00;14.41;95766.59;5030818;28;20101;-55
2021/10/25 06:54:35;;;;;;;48.88;32.83;;;;;;;31.34;13.97;95770.13;5034032;28;20049;-58
2021/10/25 06:57:03;;;;;;;54.00;34.95;;;;;;;32.12;13.75;95763.84;5034841;28;20049;-44
2021/10/25 06:59:30;;;;;;;46.05;33.40;;;;;;;31.48;13.94;95766.63;4995719;28;20057;-44
2021/10/25 07:01:57;;;;;;;48.72;33.42;;;;;;;30.10;14.28;95765.13;5044134;28;20365;-44
2021/10/25 07:04:25;;;;;;;44.35;32.50;;;;;;;31.45;13.67;95760.06;5017601;28;20048;-44
2021/10/25 07:06:54;;;;;;;43.83;31.70;;;;;;;30.52;13.60;95764.53;5017526;28;20041;-46
2021/10/25 07:09:23;;;;;;;41.00;31.23;;;;;;;32.33;13.69;95763.03;5032986;28;20041;-46
2021/10/25 07:11:50;;;;;;;38.35;30.75;;;;;;;32.88;12.96;95759.69;5024397;28;20054;-45
2021/10/25 07:14:24;;;;;;;34.40;29.58;;;;;;;32.64;12.57;95762.09;5026629;28;20074;-46
2021/10/25 07:17:05;;;;;;;30.85;27.85;;;;;;;32.49;12.82;95755.97;5021242;28;20056;-45
2021/10/25 07:19:57;;;;;;;29.35;26.55;;;;;;;32.98;12.26;95754.19;5034024;28;20052;-46
2021/10/25 08:09:26;;;;;;;4.75;3.00;;;;;;;31.79;12.13;95735.38;5015697;28;20049;-49
2021/10/25 08:11:58;;;;;;;4.00;2.97;;;;;;;31.96;11.83;95749.97;5032998;28;20065;-45
2021/10/25 08:14:34;;;;;;;7.05;3.40;;;;;;;32.12;11.65;95750.31;5033040;28;20080;-47
2021/10/25 08:17:02;;;;;;;4.22;3.38;;;;;;;31.16;12.09;95764.72;5029452;28;20452;-45
2021/10/25 08:19:33;;;;;;;5.05;3.05;;;;;;;32.08;11.44;95749.56;5025650;28;20049;-46
2021/10/25 08:22:13;;;;;;;3.42;2.70;;;;;;;31.57;11.47;95742.69;5030841;28;20483;-46
2021/10/25 08:24:49;;;;;;;4.03;2.80;;;;;;;32.19;11.56;95747.59;5031980;28;20052;-46
2021/10/25 08:27:27;;;;;;;4.85;3.30;;;;;;;32.33;11.14;95742.16;5023351;28;20053;-46
2021/10/25 08:29:54;;;;;;;5.72;2.90;;;;;;;32.27;11.04;95749.16;5025432;28;20453;-46
2021/10/25 08:35:23;;;;;;;4.13;3.40;;;;;;;32.35;11.46;95742.53;5032738;28;20049;-46
2021/10/25 08:40:59;;;;;;;4.65;2.80;;;;;;;32.31;11.10;95741.78;5031978;28;20056;-46
2021/10/25 08:43:27;;;;;;;6.95;3.17;;;;;;;32.38;11.17;95740.97;5032331;28;20045;-47
2021/10/25 08:45:57;;;;;;;4.53;3.10;;;;;;;32.16;11.30;95726.72;5030619;28;20053;-49
2021/10/25 08:48:24;;;;;;;4.45;2.70;;;;;;;32.33;11.21;95730.56;5048263;28;20482;-46
2021/10/25 08:50:53;;;;;;;4.00;2.70;;;;;;;32.49;11.40;95742.44;5030147;28;20056;-49
2021/10/25 08:53:20;;;;;;;4.88;3.00;;;;;;;32.02;10.87;95743.03;5032244;28;20057;-46
2021/10/25 08:55:53;;;;;;;4.32;3.10;;;;;;;32.09;11.05;95729.47;5032569;28;20045;-48
2021/10/25 08:58:24;;;;;;;7.72;5.10;;;;;;;32.59;10.56;95729.28;5032472;28;20045;-49
2021/10/25 09:00:52;;;;;;;4.43;3.28;;;;;;;32.53;10.71;95728.13;5029198;28;20052;-46
2021/10/25 09:03:34;;;;;;;4.70;3.33;;;;;;;32.51;10.99;95737.41;5032083;28;20056;-48
2021/10/25 09:06:22;;;;;;;4.95;2.88;;;;;;;32.27;10.67;95737.53;5033317;28;20080;-46
2021/10/25 09:08:58;;;;;;;4.35;3.35;;;;;;;32.54;10.62;95724.28;5029131;28;20404;-46
2021/10/25 09:11:27;;;;;;;3.35;2.50;;;;;;;32.22;10.75;95730.56;5032141;28;20045;-46
2021/10/25 09:14:16;;;;;;;4.78;2.78;;;;;;;32.07;10.80;95726.38;5028781;28;20049;-47
2021/10/25 09:16:57;;;;;;;4.05;2.78;;;;;;;32.39;10.83;95723.56;5032107;28;20045;-46
2021/10/25 09:20:03;;;;;;;4.15;2.78;;;;;;;31.97;11.07;95719.06;5021273;28;20057;-46
2021/10/25 09:22:30;;;;;;;7.20;2.97;;;;;;;31.86;11.59;95714.47;5016670;28;20057;-47
2021/10/25 09:24:58;;;;;;;4.10;3.10;;;;;;;32.15;11.18;95719.78;5021913;28;20045;-47
2021/10/25 09:27:37;;;;;;;4.10;2.78;;;;;;;32.63;10.71;95716.50;5028615;28;20050;-46
2021/10/25 09:30:21;;;;;;;4.25;2.58;;;;;;;32.61;10.63;95713.41;5051375;28;20049;-46
2021/10/25 09:32:50;;;;;;;3.53;2.78;;;;;;;32.39;10.85;95713.53;5032011;28;20056;-47
2021/10/25 09:35:42;;;;;;;2.95;2.53;;;;;;;32.41;10.51;95732.06;5032131;28;20049;-47
2021/10/25 09:38:28;;;;;;;4.63;2.80;;;;;;;32.76;10.62;95709.44;5028815;28;20444;-46
2021/10/25 09:51:21;;;;;;;5.65;2.47;;;;;;;32.75;10.16;95694.34;5026858;28;20329;-47
2021/10/25 09:53:48;;;;;;;3.63;2.50;;;;;;;32.26;10.23;95688.06;5015717;28;20057;-45
2021/10/25 09:56:15;;;;;;;4.47;3.03;;;;;;;32.09;10.70;95678.09;5048391;28;20045;-46
2021/10/25 09:59:11;;;;;;;4.22;2.55;;;;;;;31.81;10.66;95677.03;5032299;28;20049;-46
2021/10/25 10:01:41;;;;;;;4.95;2.22;;;;;;;31.85;10.66;95669.69;5014664;28;20452;-46
2021/10/25 10:04:09;;;;;;;4.47;2.50;;;;;;;31.64;10.70;95675.13;5019054;28;20048;-46
2021/10/25 10:06:54;;;;;;;3.58;2.40;;;;;;;31.70;11.10;95662.75;5017497;28;20052;-45
2021/10/25 10:09:21;;;;;;;4.55;2.65;;;;;;;31.97;10.66;95665.75;5034952;28;20444;-46
2021/10/25 10:11:48;;;;;;;4.78;2.85;;;;;;;32.08;10.98;95654.91;5019110;28;20049;-54
2021/10/25 10:14:16;;;;;;;6.00;3.15;;;;;;;31.67;11.49;95655.41;5019119;28;20041;-61
2021/10/25 10:16:49;;;;;;;7.25;4.45;;;;;;;31.69;11.23;95655.78;5018519;28;20368;-48
2021/10/25 10:19:24;;;;;;;5.53;3.80;;;;;;;31.77;11.09;95657.38;5029699;28;20056;-45
2021/10/25 10:22:15;;;;;;;3.92;3.42;;;;;;;32.00;11.18;95653.38;5016599;28;20045;-45
2021/10/25 10:25:09;;;;;;;6.03;3.22;;;;;;;31.71;11.18;95648.09;5032012;28;20116;-46
2021/10/25 10:27:38;;;;;;;5.55;3.83;;;;;;;32.05;11.03;95640.25;5014167;28;20052;-50
2021/10/25 10:30:12;;;;;;;5.97;3.58;;;;;;;31.35;11.87;95638.53;5001554;28;20057;-49
2021/10/25 10:33:01;;;;;;;6.93;4.07;;;;;;;31.67;11.44;95633.78;5017706;28;20072;-45
2021/10/25 10:35:49;;;;;;;5.97;3.25;;;;;;;30.96;11.91;95625.81;5029908;28;20452;-59
2021/10/25 10:38:16;;;;;;;7.15;3.72;;;;;;;30.94;11.80;95617.31;5034650;28;20045;-54
2021/10/25 10:41:06;;;;;;;6.93;3.67;;;;;;;31.42;11.80;95614.19;5016390;28;20045;-47
2021/10/25 10:44:15;;;;;;;4.03;2.50;;;;;;;31.24;10.80;95609.63;4992846;28;20069;-57
2021/10/25 10:46:44;;;;;;;3.90;2.35;;;;;;;30.39;11.34;95606.88;4987634;28;20054;-46
2021/10/25 10:49:44;;;;;;;3.47;2.40;;;;;;;30.47;11.42;95610.38;4995519;28;20045;-47
2021/10/25 10:52:34;;;;;;;6.50;3.05;;;;;;;31.05;11.21;95601.91;5030534;28;20455;-46
2021/10/25 10:55:25;;;;;;;5.32;2.50;;;;;;;30.50;11.47;95599.59;5035136;28;20072;-45
2021/10/25 11:00:30;;;;;;;7.13;2.72;;;;;;;30.26;11.93;95597.63;5014870;28;20042;-45
2021/10/25 11:02:59;;;;;;;3.00;2.08;;;;;;;30.21;11.98;95590.69;5035315;28;20474;-46
2021/10/25 11:05:30;;;;;;;5.90;2.75;;;;;;;30.35;11.96;95581.84;5031616;28;20052;-45
2021/10/25 11:08:21;;;;;;;4.80;2.53;;;;;;;29.99;11.84;95584.44;5035278;28;20049;-45
2021/10/25 11:10:57;;;;;;;4.07;2.30;;;;;;;29.71;12.22;95581.66;5025651;28;20365;-45
2021/10/25 11:13:27;;;;;;;4.90;2.65;;;;;;;29.58;12.30;95577.75;5033285;28;20056;-45
2021/10/25 11:16:18;;;;;;;5.60;2.90;;;;;;;29.90;12.63;95584.03;5032986;28;20045;-45
2021/10/25 11:18:48;;;;;;;3.60;2.88;;;;;;;30.60;12.54;95577.25;5034324;28;20052;-45
2021/10/25 11:21:32;;;;;;;6.55;3.05;;;;;;;31.26;12.28;95585.69;5022559;28;20045;-46
2021/10/25 11:24:08;;;;;;;5.75;3.35;;;;;;;31.52;11.71;95575.56;5021214;28;20056;-45
2021/10/25 11:26:36;;;;;;;4.25;3.13;;;;;;;31.30;12.33;95569.47;5033816;28;20456;-44
2021/10/25 11:29:12;;;;;;;4.65;2.53;;;;;;;30.35;12.19;95560.25;5031670;28;20424;-44
2021/10/25 11:31:42;;;;;;;6.15;4.35;;;;;;;32.60;11.67;95566.47;5034515;28;20049;-45
2021/10/25 11:34:18;;;;;;;4.30;3.40;;;;;;;31.99;11.85;95562.63;5029242;28;20049;-46
2021/10/25 11:36:53;;;;;;;4.72;3.80;;;;;;;32.25;12.01;95556.66;5063744;28;20072;-45
2021/10/25 11:39:29;;;;;;;7.47;2.80;;;;;;;30.95;11.41;95556.78;5033675;28;20375;-46
2021/10/25 11:41:57;;;;;;;4.57;2.28;;;;;;;30.83;11.66;95551.78;5019271;28;20050;-46
2021/10/25 11:44:24;;;;;;;5.63;3.30;;;;;;;30.58;11.29;95547.16;5019666;28;20049;-45
2021/10/25 11:46:51;;;;;;;4.75;3.72;;;;;;;32.61;10.98;95540.94;5030859;28;20053;-45
2021/10/25 11:49:26;;;;;;;8.13;6.80;;;;;;;31.34;11.75;95542.44;5014739;28;20499;-45
2021/10/25 11:51:56;;;;;;;6.38;3.55;;;;;;;30.90;11.40;95538.28;5014226;28;20050;-45
2021/10/25 11:54:24;;;;;;;4.40;3.20;;;;;;;31.60;12.23;95542.72;5022404;28;20049;-44
2021/10/25 11:56:53;;;;;;;4.03;2.95;;;;;;;31.49;11.44;95535.81;5017476;28;20364;-45
2021/10/25 11:59:21;;;;;;;5.78;2.80;;;;;;;30.33;12.06;95539.06;5014668;28;20049;-44
2021/10/25 12:01:50;;;;;;;3.40;2.50;;;;;;;30.87;12.06;95536.34;5024564;28;20048;-46
2021/10/25 12:04:19;;;;;;;3.28;2.60;;;;;;;31.31;11.95;95535.13;5025018;28;20041;-45
2021/10/25 12:06:54;;;;;;;4.72;2.90;;;;;;;32.31;11.92;95528.06;5033904;28;20041;-45
2021/10/25 12:09:22;;;;;;;3.50;2.30;;;;;;;30.56;12.29;95527.88;5013659;28;20057;-45
2021/10/25 12:11:57;;;;;;;5.28;2.08;;;;;;;31.21;11.54;95523.19;5029304;28;20068;-44
2021/10/25 12:14:30;;;;;;;3.50;1.95;;;;;;;30.54;11.40;95524.03;5032241;28;20045;-45
2021/10/25 12:16:58;;;;;;;2.80;2.00;;;;;;;30.19;11.90;95519.41;5031798;28;20060;-45
2021/10/25 12:19:29;;;;;;;3.58;2.00;;;;;;;29.85;11.56;95522.41;5019609;28;20069;-45
2021/10/25 12:22:17;;;;;;;3.70;2.28;;;;;;;29.77;11.62;95513.53;5027115;28;20045;-45
2021/10/25 12:24:47;;;;;;;4.13;2.00;;;;;;;29.95;11.61;95510.91;5009629;28;20041;-45
2021/10/25 12:27:17;;;;;;;5.25;2.47;;;;;;;29.70;11.70;95515.47;5033674;28;20049;-45
2021/10/25 12:29:45;;;;;;;4.53;2.10;;;;;;;29.49;11.99;95504.63;5033823;28;20061;-45
2021/10/25 12:32:13;;;;;;;4.78;2.40;;;;;;;29.80;12.19;95498.53;5062313;28;20045;-45
2021/10/25 12:34:53;;;;;;;3.75;2.28;;;;;;;29.70;11.91;95510.06;5033189;28;20053;-44
2021/10/25 12:37:29;;;;;;;5.07;2.20;;;;;;;29.09;12.45;95499.03;5030230;28;20049;-46
2021/10/25 12:39:57;;;;;;;3.47;2.03;;;;;;;30.80;12.91;95504.00;5032510;28;20796;-46
2021/10/25 12:42:38;;;;;;;3.28;2.30;;;;;;;31.44;11.36;95501.09;5022631;28;20373;-45
2021/10/25 12:45:13;;;;;;;;;;;;;;;30.72;11.57;95503.25;5026667;28;20515;-45
2021/10/25 12:47:40;;;;;;;4.32;2.00;;;;;;;31.31;11.25;95500.78;5029982;28;19920;-45
2021/10/25 12:50:07;;;;;;;2.92;2.17;;;;;;;32.00;10.65;95496.56;5031537;28;20053;-45
2021/10/25 12:52:34;;;;;;;4.03;2.38;;;;;;;31.88;11.08;95498.56;5061939;28;20499;-46
2021/10/25 12:55:03;;;;;;;5.68;2.08;;;;;;;31.96;10.97;95493.09;5065721;28;20049;-46
2021/10/25 12:57:35;;;;;;;5.28;2.20;;;;;;;31.47;10.78;95492.97;5033632;28;20333;-45
2021/10/25 13:00:10;;;;;;;3.17;2.05;;;;;;;31.35;10.74;95496.13;5029360;28;20459;-47
2021/10/25 13:02:47;;;;;;;3.38;1.90;;;;;;;31.81;10.53;95482.41;5029347;28;20053;-46
2021/10/25 13:05:26;;;;;;;4.20;1.95;;;;;;;31.77;10.81;95484.38;5029276;28;20059;-45
2021/10/25 13:07:55;;;;;;;3.55;2.08;;;;;;;31.96;10.28;95491.16;5028822;28;20048;-45
2021/10/25 13:10:30;;;;;;;4.85;2.33;;;;;;;31.73;10.79;95494.41;5031187;28;20057;-45
2021/10/25 13:12:59;;;;;;;4.15;2.00;;;;;;;31.89;10.67;95481.19;5029617;28;20384;-45
2021/10/25 13:15:27;;;;;;;6.70;2.40;;;;;;;32.47;11.54;95487.72;5027138;28;20042;-46
2021/10/25 13:17:56;;;;;;;5.25;2.60;;;;;;;32.24;10.69;95482.06;5018143;28;20046;-52
2021/10/25 13:20:26;;;;;;;3.35;1.98;;;;;;;32.07;10.56;95491.13;5013714;28;20056;-45
2021/10/25 13:22:58;;;;;;;4.57;1.83;;;;;;;31.56;10.76;95489.84;5009838;28;20049;-45
2021/10/25 13:25:27;;;;;;;3.55;2.10;;;;;;;31.78;10.65;95490.53;5026701;28;20045;-46
2021/10/25 13:27:55;;;;;;;5.30;2.40;;;;;;;31.85;10.58;95480.44;5033148;28;20053;-46
2021/10/25 13:30:23;;;;;;;3.25;1.95;;;;;;;31.92;10.39;95468.03;5033271;28;20053;-46
2021/10/25 13:32:51;;;;;;;3.55;2.20;;;;;;;31.80;10.10;95461.19;5029754;28;20167;-52
2021/10/25 13:35:18;;;;;;;6.97;3.00;;;;;;;31.78;10.13;95475.09;5032626;28;20482;-51